sensor_id;sensor_type;location;lat;lon;timestamp;pressure;altitude;pressure_sealevel;temperature;humidity
12676;BME280;63820;65.654;21.944;2023-03-15T00:02:22;98201.16;;;-17.43;100.00
12676;BME280;63820;65.654;21.944;2023-03-15T00:05:09;98210.44;;;-17.38;100.00
12676;BME280;63820;65.654;21.944;2023-03-15T00:07:55;98212.25;;;-17.32;100.00
12676;BME280;63820;65.654;21.944;2023-03-15T00:10:46;98210.78;;;-17.26;100.00
12676;BME280;63820;65.654;21.944;2023-03-15T00:13:32;98211.75;;;-17.21;100.00
12676;BME280;63820;65.654;21.944;2023-03-15T00:16:16;98218.38;;;-17.21;100.00
12676;BME280;63820;65.654;21.944;2023-03-15T00:19:01;98225.59;;;-17.29;100.00
12676;BME280;63820;65.654;21.944;2023-03-15T00:21:46;98214.47;;;-17.41;100.00
12676;BME280;63820;65.654;21.944;2023-03-15T00:24:30;98215.88;;;-17.49;100.00
12676;BME280;63820;65.654;21.944;2023-03-15T00:27:14;98216.41;;;-17.60;100.00
12676;BME280;63820;65.654;21.944;2023-03-15T00:29:58;98216.31;;;-17.63;100.00
12676;BME280;63820;65.654;21.944;2023-03-15T00:32:42;98221.16;;;-17.67;100.00
12676;BME280;63820;65.654;21.944;2023-03-15T00:35:26;98230.13;;;-17.72;100.00
12676;BME280;63820;65.654;21.944;2023-03-15T00:38:11;98226.53;;;-17.82;100.00
12676;BME280;63820;65.654;21.944;2023-03-15T00:40:56;98227.13;;;-17.89;100.00
12676;BME280;63820;65.654;21.944;2023-03-15T00:43:41;98226.09;;;-17.96;100.00
12676;BME280;63820;65.654;21.944;2023-03-15T00:46:25;98233.34;;;-18.02;100.00
12676;BME280;63820;65.654;21.944;2023-03-15T00:49:10;98233.81;;;-18.12;100.00
12676;BME280;63820;65.654;21.944;2023-03-15T00:51:54;98230.25;;;-18.20;100.00
12676;BME280;63820;65.654;21.944;2023-03-15T00:54:39;98236.50;;;-18.31;100.00
12676;BME280;63820;65.654;21.944;2023-03-15T00:57:24;98239.47;;;-18.41;100.00
12676;BME280;63820;65.654;21.944;2023-03-15T01:00:11;98240.41;;;-18.38;100.00
12676;BME280;63820;65.654;21.944;2023-03-15T01:02:57;98241.94;;;-18.41;100.00
12676;BME280;63820;65.654;21.944;2023-03-15T01:05:41;98239.34;;;-18.44;100.00
12676;BME280;63820;65.654;21.944;2023-03-15T01:08:25;98246.00;;;-18.43;100.00
12676;BME280;63820;65.654;21.944;2023-03-15T01:11:11;98237.19;;;-18.35;100.00
12676;BME280;63820;65.654;21.944;2023-03-15T01:13:58;98240.13;;;-18.22;100.00
12676;BME280;63820;65.654;21.944;2023-03-15T01:16:42;98249.03;;;-18.27;100.00
12676;BME280;63820;65.654;21.944;2023-03-15T01:19:26;98248.16;;;-18.29;100.00
12676;BME280;63820;65.654;21.944;2023-03-15T01:22:11;98243.34;;;-18.24;100.00
12676;BME280;63820;65.654;21.944;2023-03-15T01:24:55;98248.41;;;-18.21;100.00
12676;BME280;63820;65.654;21.944;2023-03-15T01:27:40;98253.06;;;-18.30;100.00
12676;BME280;63820;65.654;21.944;2023-03-15T01:30:23;98252.75;;;-18.39;100.00
12676;BME280;63820;65.654;21.944;2023-03-15T01:33:07;98265.09;;;-18.41;100.00
12676;BME280;63820;65.654;21.944;2023-03-15T01:36:03;98273.06;;;-18.49;100.00
12676;BME280;63820;65.654;21.944;2023-03-15T01:38:48;98273.75;;;-18.54;100.00
12676;BME280;63820;65.654;21.944;2023-03-15T01:41:33;98274.34;;;-18.61;100.00
12676;BME280;63820;65.654;21.944;2023-03-15T01:44:18;98278.19;;;-18.69;100.00
12676;BME280;63820;65.654;21.944;2023-03-15T01:47:03;98286.13;;;-18.79;100.00
12676;BME280;63820;65.654;21.944;2023-03-15T01:49:53;98284.16;;;-18.88;100.00
12676;BME280;63820;65.654;21.944;2023-03-15T01:52:40;98285.56;;;-18.94;100.00
12676;BME280;63820;65.654;21.944;2023-03-15T01:55:25;98293.09;;;-18.91;100.00
12676;BME280;63820;65.654;21.944;2023-03-15T01:58:10;98294.97;;;-18.85;100.00
12676;BME280;63820;65.654;21.944;2023-03-15T02:00:55;98295.19;;;-18.79;100.00
12676;BME280;63820;65.654;21.944;2023-03-15T02:03:43;98297.66;;;-18.79;100.00
12676;BME280;63820;65.654;21.944;2023-03-15T02:06:30;98295.91;;;-18.82;100.00
12676;BME280;63820;65.654;21.944;2023-03-15T02:09:17;98287.47;;;-18.87;100.00
12676;BME280;63820;65.654;21.944;2023-03-15T02:12:03;98303.91;;;-18.89;100.00
12676;BME280;63820;65.654;21.944;2023-03-15T02:14:49;98297.88;;;-18.96;100.00
12676;BME280;63820;65.654;21.944;2023-03-15T02:17:40;98297.78;;;-18.99;100.00
12676;BME280;63820;65.654;21.944;2023-03-15T02:23:17;98301.25;;;-18.94;100.00
12676;BME280;63820;65.654;21.944;2023-03-15T02:28:59;98305.16;;;-19.00;100.00
12676;BME280;63820;65.654;21.944;2023-03-15T02:31:44;98298.34;;;-19.06;100.00
12676;BME280;63820;65.654;21.944;2023-03-15T02:34:28;98300.59;;;-19.12;100.00
12676;BME280;63820;65.654;21.944;2023-03-15T02:37:13;98294.44;;;-19.22;100.00
12676;BME280;63820;65.654;21.944;2023-03-15T02:39:57;98304.13;;;-19.28;100.00
12676;BME280;63820;65.654;21.944;2023-03-15T02:42:42;98309.44;;;-19.39;100.00
12676;BME280;63820;65.654;21.944;2023-03-15T02:45:27;98311.50;;;-19.50;100.00
12676;BME280;63820;65.654;21.944;2023-03-15T02:48:15;98313.59;;;-19.61;100.00
12676;BME280;63820;65.654;21.944;2023-03-15T02:51:00;98311.53;;;-19.71;100.00
12676;BME280;63820;65.654;21.944;2023-03-15T02:53:45;98310.13;;;-19.86;100.00
12676;BME280;63820;65.654;21.944;2023-03-15T02:56:29;98299.72;;;-19.99;100.00
12676;BME280;63820;65.654;21.944;2023-03-15T02:59:16;98316.13;;;-20.01;100.00
12676;BME280;63820;65.654;21.944;2023-03-15T03:02:00;98316.78;;;-20.05;100.00
12676;BME280;63820;65.654;21.944;2023-03-15T03:04:45;98316.78;;;-20.05;100.00
12676;BME280;63820;65.654;21.944;2023-03-15T03:07:29;98326.78;;;-20.02;100.00
12676;BME280;63820;65.654;21.944;2023-03-15T03:10:16;98325.88;;;-20.04;100.00
12676;BME280;63820;65.654;21.944;2023-03-15T03:13:00;98330.06;;;-20.03;100.00
12676;BME280;63820;65.654;21.944;2023-03-15T03:15:44;98333.50;;;-19.99;100.00
12676;BME280;63820;65.654;21.944;2023-03-15T03:18:30;98331.75;;;-20.02;100.00
12676;BME280;63820;65.654;21.944;2023-03-15T03:21:18;98332.59;;;-20.01;100.00
12676;BME280;63820;65.654;21.944;2023-03-15T03:24:03;98334.22;;;-20.02;100.00
12676;BME280;63820;65.654;21.944;2023-03-15T03:26:46;98339.09;;;-20.03;100.00
12676;BME280;63820;65.654;21.944;2023-03-15T03:29:31;98335.00;;;-20.03;100.00
12676;BME280;63820;65.654;21.944;2023-03-15T03:32:15;98340.84;;;-20.01;100.00
12676;BME280;63820;65.654;21.944;2023-03-15T03:34:59;98349.03;;;-20.02;100.00
12676;BME280;63820;65.654;21.944;2023-03-15T03:37:43;98341.56;;;-20.03;100.00
12676;BME280;63820;65.654;21.944;2023-03-15T03:40:27;98348.38;;;-19.98;100.00
12676;BME280;63820;65.654;21.944;2023-03-15T03:43:11;98364.63;;;-19.83;100.00
12676;BME280;63820;65.654;21.944;2023-03-15T03:45:55;98362.41;;;-19.77;100.00
12676;BME280;63820;65.654;21.944;2023-03-15T03:48:39;98362.41;;;-19.77;100.00
12676;BME280;63820;65.654;21.944;2023-03-15T03:51:23;98369.72;;;-19.80;100.00
12676;BME280;63820;65.654;21.944;2023-03-15T03:54:07;98368.63;;;-19.87;100.00
12676;BME280;63820;65.654;21.944;2023-03-15T03:56:52;98378.25;;;-19.93;100.00
12676;BME280;63820;65.654;21.944;2023-03-15T03:59:37;98386.44;;;-19.94;100.00
12676;BME280;63820;65.654;21.944;2023-03-15T04:02:20;98379.41;;;-19.85;100.00
12676;BME280;63820;65.654;21.944;2023-03-15T04:05:04;98381.44;;;-19.75;100.00
12676;BME280;63820;65.654;21.944;2023-03-15T04:07:50;98386.84;;;-19.64;100.00
12676;BME280;63820;65.654;21.944;2023-03-15T04:10:34;98388.00;;;-19.56;100.00
12676;BME280;63820;65.654;21.944;2023-03-15T04:13:19;98388.22;;;-19.50;100.00
12676;BME280;63820;65.654;21.944;2023-03-15T04:16:04;98392.97;;;-19.34;100.00
12676;BME280;63820;65.654;21.944;2023-03-15T04:18:50;98386.16;;;-19.18;100.00
12676;BME280;63820;65.654;21.944;2023-03-15T04:21:34;98385.38;;;-19.17;100.00
12676;BME280;63820;65.654;21.944;2023-03-15T04:24:18;98391.16;;;-19.17;100.00
12676;BME280;63820;65.654;21.944;2023-03-15T04:27:02;98395.22;;;-19.19;100.00
12676;BME280;63820;65.654;21.944;2023-03-15T04:29:48;98397.56;;;-19.22;100.00
12676;BME280;63820;65.654;21.944;2023-03-15T04:32:32;98396.84;;;-19.19;100.00
12676;BME280;63820;65.654;21.944;2023-03-15T04:35:16;98411.81;;;-19.16;100.00
12676;BME280;63820;65.654;21.944;2023-03-15T04:38:01;98418.53;;;-19.14;100.00
12676;BME280;63820;65.654;21.944;2023-03-15T04:40:46;98420.28;;;-19.11;100.00
12676;BME280;63820;65.654;21.944;2023-03-15T04:43:31;98416.16;;;-19.11;100.00
12676;BME280;63820;65.654;21.944;2023-03-15T04:46:15;98428.50;;;-19.12;100.00
12676;BME280;63820;65.654;21.944;2023-03-15T04:48:59;98426.91;;;-19.31;100.00
12676;BME280;63820;65.654;21.944;2023-03-15T04:51:44;98435.00;;;-19.35;100.00
12676;BME280;63820;65.654;21.944;2023-03-15T04:54:28;98440.28;;;-19.47;100.00
12676;BME280;63820;65.654;21.944;2023-03-15T04:57:13;98439.69;;;-19.62;100.00
12676;BME280;63820;65.654;21.944;2023-03-15T04:59:56;98442.94;;;-19.63;100.00
12676;BME280;63820;65.654;21.944;2023-03-15T05:02:41;98443.72;;;-19.64;100.00
12676;BME280;63820;65.654;21.944;2023-03-15T05:05:25;98444.25;;;-19.71;100.00
12676;BME280;63820;65.654;21.944;2023-03-15T05:08:10;98448.97;;;-19.77;100.00
12676;BME280;63820;65.654;21.944;2023-03-15T05:10:54;98443.25;;;-19.76;100.00
12676;BME280;63820;65.654;21.944;2023-03-15T05:13:38;98444.88;;;-19.77;100.00
12676;BME280;63820;65.654;21.944;2023-03-15T05:16:22;98447.56;;;-19.71;100.00
12676;BME280;63820;65.654;21.944;2023-03-15T05:19:06;98447.19;;;-19.61;100.00
12676;BME280;63820;65.654;21.944;2023-03-15T05:21:51;98441.63;;;-19.55;100.00
12676;BME280;63820;65.654;21.944;2023-03-15T05:24:37;98451.75;;;-19.49;100.00
12676;BME280;63820;65.654;21.944;2023-03-15T05:27:22;98452.66;;;-19.47;100.00
12676;BME280;63820;65.654;21.944;2023-03-15T05:30:07;98452.72;;;-19.45;100.00
12676;BME280;63820;65.654;21.944;2023-03-15T05:32:51;98458.91;;;-19.36;100.00
12676;BME280;63820;65.654;21.944;2023-03-15T05:35:35;98465.00;;;-19.28;100.00
12676;BME280;63820;65.654;21.944;2023-03-15T05:38:20;98461.94;;;-19.22;100.00
12676;BME280;63820;65.654;21.944;2023-03-15T05:41:09;98473.19;;;-19.09;100.00
12676;BME280;63820;65.654;21.944;2023-03-15T05:43:53;98475.53;;;-18.92;100.00
12676;BME280;63820;65.654;21.944;2023-03-15T05:46:37;98479.88;;;-18.86;100.00
12676;BME280;63820;65.654;21.944;2023-03-15T05:49:21;98485.25;;;-18.75;100.00
12676;BME280;63820;65.654;21.944;2023-03-15T05:52:05;98486.22;;;-18.72;100.00
12676;BME280;63820;65.654;21.944;2023-03-15T05:54:49;98482.50;;;-18.61;100.00
12676;BME280;63820;65.654;21.944;2023-03-15T05:57:33;98483.91;;;-18.45;100.00
12676;BME280;63820;65.654;21.944;2023-03-15T06:00:18;98487.34;;;-18.19;100.00
12676;BME280;63820;65.654;21.944;2023-03-15T06:03:02;98494.00;;;-17.96;100.00
12676;BME280;63820;65.654;21.944;2023-03-15T06:05:47;98492.34;;;-17.73;100.00
12676;BME280;63820;65.654;21.944;2023-03-15T06:08:31;98491.28;;;-17.54;100.00
12676;BME280;63820;65.654;21.944;2023-03-15T06:11:16;98498.63;;;-17.33;100.00
12676;BME280;63820;65.654;21.944;2023-03-15T06:14:00;98502.22;;;-17.25;100.00
12676;BME280;63820;65.654;21.944;2023-03-15T06:16:44;98504.47;;;-17.07;100.00
12676;BME280;63820;65.654;21.944;2023-03-15T06:19:28;98499.94;;;-16.94;100.00
12676;BME280;63820;65.654;21.944;2023-03-15T06:22:13;98511.63;;;-16.91;100.00
12676;BME280;63820;65.654;21.944;2023-03-15T06:24:57;98509.25;;;-16.88;100.00
12676;BME280;63820;65.654;21.944;2023-03-15T06:27:42;98515.75;;;-16.92;100.00
12676;BME280;63820;65.654;21.944;2023-03-15T06:30:26;98521.59;;;-17.15;100.00
12676;BME280;63820;65.654;21.944;2023-03-15T06:33:10;98535.50;;;-17.20;100.00
12676;BME280;63820;65.654;21.944;2023-03-15T06:35:54;98528.03;;;-17.69;100.00
12676;BME280;63820;65.654;21.944;2023-03-15T06:38:38;98541.13;;;-18.18;100.00
12676;BME280;63820;65.654;21.944;2023-03-15T06:41:24;98546.44;;;-18.09;100.00
12676;BME280;63820;65.654;21.944;2023-03-15T06:44:10;98548.81;;;-17.66;100.00
12676;BME280;63820;65.654;21.944;2023-03-15T06:46:54;98556.84;;;-17.01;100.00
12676;BME280;63820;65.654;21.944;2023-03-15T06:49:38;98553.25;;;-16.05;100.00
12676;BME280;63820;65.654;21.944;2023-03-15T06:52:23;98557.78;;;-15.32;98.89
12676;BME280;63820;65.654;21.944;2023-03-15T06:55:07;98557.00;;;-14.99;96.29
12676;BME280;63820;65.654;21.944;2023-03-15T06:57:53;98572.59;;;-15.06;94.13
12676;BME280;63820;65.654;21.944;2023-03-15T07:00:37;98578.38;;;-15.07;96.47
12676;BME280;63820;65.654;21.944;2023-03-15T07:03:21;98572.31;;;-14.16;100.00
12676;BME280;63820;65.654;21.944;2023-03-15T07:06:06;98581.00;;;-13.63;95.11
12676;BME280;63820;65.654;21.944;2023-03-15T07:08:51;98574.44;;;-13.16;96.96
12676;BME280;63820;65.654;21.944;2023-03-15T07:11:34;98586.47;;;-12.95;98.36
12676;BME280;63820;65.654;21.944;2023-03-15T07:14:18;98585.78;;;-12.88;99.56
12676;BME280;63820;65.654;21.944;2023-03-15T07:17:03;98590.31;;;-13.12;96.25
12676;BME280;63820;65.654;21.944;2023-03-15T07:19:47;98598.63;;;-13.13;100.00
12676;BME280;63820;65.654;21.944;2023-03-15T07:22:33;98597.22;;;-13.01;100.00
12676;BME280;63820;65.654;21.944;2023-03-15T07:25:17;98601.59;;;-12.89;100.00
12676;BME280;63820;65.654;21.944;2023-03-15T07:28:06;98605.22;;;-12.75;100.00
12676;BME280;63820;65.654;21.944;2023-03-15T07:30:55;98596.50;;;-12.48;100.00
12676;BME280;63820;65.654;21.944;2023-03-15T07:33:40;98594.09;;;-11.90;100.00
12676;BME280;63820;65.654;21.944;2023-03-15T07:36:25;98599.16;;;-11.22;100.00
12676;BME280;63820;65.654;21.944;2023-03-15T07:39:09;98596.88;;;-10.14;96.47
12676;BME280;63820;65.654;21.944;2023-03-15T07:41:53;98596.66;;;-9.15;91.59
12676;BME280;63820;65.654;21.944;2023-03-15T07:44:37;98607.81;;;-7.88;79.54
12676;BME280;63820;65.654;21.944;2023-03-15T07:47:21;98607.75;;;-5.82;70.91
12676;BME280;63820;65.654;21.944;2023-03-15T07:50:05;98614.38;;;-4.22;63.31
12676;BME280;63820;65.654;21.944;2023-03-15T07:52:50;98620.34;;;-2.00;54.11
12676;BME280;63820;65.654;21.944;2023-03-15T07:55:35;98620.50;;;-0.73;47.87
12676;BME280;63820;65.654;21.944;2023-03-15T07:58:19;98620.47;;;1.15;43.07
12676;BME280;63820;65.654;21.944;2023-03-15T08:01:03;98626.38;;;1.64;40.29
12676;BME280;63820;65.654;21.944;2023-03-15T08:03:47;98627.31;;;1.85;40.69
12676;BME280;63820;65.654;21.944;2023-03-15T08:06:31;98635.63;;;0.47;42.58
12676;BME280;63820;65.654;21.944;2023-03-15T08:09:15;98635.19;;;3.83;38.40
12676;BME280;63820;65.654;21.944;2023-03-15T08:12:00;98640.19;;;3.10;37.95
12676;BME280;63820;65.654;21.944;2023-03-15T08:14:45;98638.03;;;3.96;37.65
12676;BME280;63820;65.654;21.944;2023-03-15T08:17:29;98641.47;;;1.02;41.91
12676;BME280;63820;65.654;21.944;2023-03-15T08:20:15;98641.88;;;1.61;41.38
12676;BME280;63820;65.654;21.944;2023-03-15T08:23:00;98646.22;;;2.04;41.43
12676;BME280;63820;65.654;21.944;2023-03-15T08:25:45;98656.72;;;3.04;38.48
12676;BME280;63820;65.654;21.944;2023-03-15T08:28:29;98657.06;;;3.15;39.80
12676;BME280;63820;65.654;21.944;2023-03-15T08:31:13;98656.50;;;3.48;38.55
12676;BME280;63820;65.654;21.944;2023-03-15T08:33:57;98661.47;;;3.32;38.25
12676;BME280;63820;65.654;21.944;2023-03-15T08:36:41;98669.06;;;1.17;39.27
12676;BME280;63820;65.654;21.944;2023-03-15T08:39:25;98661.47;;;2.51;38.92
12676;BME280;63820;65.654;21.944;2023-03-15T08:42:10;98666.56;;;2.73;40.55
12676;BME280;63820;65.654;21.944;2023-03-15T08:44:54;98672.13;;;3.04;37.58
12676;BME280;63820;65.654;21.944;2023-03-15T08:47:42;98666.06;;;4.19;37.70
12676;BME280;63820;65.654;21.944;2023-03-15T08:50:27;98671.97;;;5.26;37.17
12676;BME280;63820;65.654;21.944;2023-03-15T08:53:13;98675.28;;;5.46;37.56
12676;BME280;63820;65.654;21.944;2023-03-15T08:55:57;98669.59;;;6.21;35.38
12676;BME280;63820;65.654;21.944;2023-03-15T08:58:41;98667.31;;;4.66;37.68
12676;BME280;63820;65.654;21.944;2023-03-15T09:01:25;98670.00;;;5.32;37.27
12676;BME280;63820;65.654;21.944;2023-03-15T09:04:10;98676.91;;;5.31;37.24
12676;BME280;63820;65.654;21.944;2023-03-15T09:06:54;98678.00;;;7.00;36.36
12676;BME280;63820;65.654;21.944;2023-03-15T09:09:38;98678.06;;;6.84;36.07
12676;BME280;63820;65.654;21.944;2023-03-15T09:12:23;98681.75;;;6.65;37.36
12676;BME280;63820;65.654;21.944;2023-03-15T09:15:08;98685.16;;;7.96;36.96
12676;BME280;63820;65.654;21.944;2023-03-15T09:17:53;98691.03;;;9.20;35.37
12676;BME280;63820;65.654;21.944;2023-03-15T09:20:37;98694.47;;;9.59;35.61
12676;BME280;63820;65.654;21.944;2023-03-15T09:23:22;98693.59;;;8.68;34.48
12676;BME280;63820;65.654;21.944;2023-03-15T09:26:06;98694.66;;;8.24;34.91
12676;BME280;63820;65.654;21.944;2023-03-15T09:28:51;98697.72;;;6.41;36.99
12676;BME280;63820;65.654;21.944;2023-03-15T09:31:35;98704.81;;;7.13;36.73
12676;BME280;63820;65.654;21.944;2023-03-15T09:34:20;98705.69;;;6.52;37.22
12676;BME280;63820;65.654;21.944;2023-03-15T09:37:04;98703.63;;;7.33;36.82
12676;BME280;63820;65.654;21.944;2023-03-15T09:39:48;98711.31;;;7.35;35.09
12676;BME280;63820;65.654;21.944;2023-03-15T09:42:55;98717.97;;;7.25;36.23
12676;BME280;63820;65.654;21.944;2023-03-15T09:48:52;98726.63;;;6.32;36.72
12676;BME280;63820;65.654;21.944;2023-03-15T09:51:43;98725.44;;;5.90;36.75
12676;BME280;63820;65.654;21.944;2023-03-15T09:54:42;98733.72;;;7.78;36.09
12676;BME280;63820;65.654;21.944;2023-03-15T09:58:08;98741.94;;;8.69;35.63
12676;BME280;63820;65.654;21.944;2023-03-15T10:00:58;98744.38;;;8.84;37.36
12676;BME280;63820;65.654;21.944;2023-03-15T10:03:47;98745.88;;;9.01;36.47
12676;BME280;63820;65.654;21.944;2023-03-15T10:06:32;98752.84;;;11.25;33.35
12676;BME280;63820;65.654;21.944;2023-03-15T10:09:22;98750.38;;;11.92;32.39
12676;BME280;63820;65.654;21.944;2023-03-15T10:12:24;98762.72;;;12.12;33.07
12676;BME280;63820;65.654;21.944;2023-03-15T10:21:08;98759.16;;;12.90;31.89
12676;BME280;63820;65.654;21.944;2023-03-15T10:23:54;98764.13;;;11.94;31.79
12676;BME280;63820;65.654;21.944;2023-03-15T10:26:38;98765.09;;;10.27;34.63
12676;BME280;63820;65.654;21.944;2023-03-15T10:29:25;98774.22;;;12.09;32.41
12676;BME280;63820;65.654;21.944;2023-03-15T10:32:19;98770.53;;;12.46;32.77
12676;BME280;63820;65.654;21.944;2023-03-15T10:35:14;98761.69;;;12.69;32.41
12676;BME280;63820;65.654;21.944;2023-03-15T10:37:59;98764.66;;;13.19;32.73
12676;BME280;63820;65.654;21.944;2023-03-15T10:40:51;98763.34;;;13.45;31.70
12676;BME280;63820;65.654;21.944;2023-03-15T10:43:36;98772.63;;;13.17;32.02
12676;BME280;63820;65.654;21.944;2023-03-15T10:46:23;98773.47;;;13.59;31.01
12676;BME280;63820;65.654;21.944;2023-03-15T10:49:14;98779.00;;;12.70;31.51
12676;BME280;63820;65.654;21.944;2023-03-15T10:51:59;98780.63;;;12.82;31.31
12676;BME280;63820;65.654;21.944;2023-03-15T10:54:43;98781.63;;;12.70;32.44
12676;BME280;63820;65.654;21.944;2023-03-15T10:57:33;98787.94;;;11.89;33.67
12676;BME280;63820;65.654;21.944;2023-03-15T11:03:15;98788.16;;;10.19;34.99
12676;BME280;63820;65.654;21.944;2023-03-15T11:06:01;98790.03;;;8.32;38.11
12676;BME280;63820;65.654;21.944;2023-03-15T11:08:45;98794.25;;;6.39;41.75
12676;BME280;63820;65.654;21.944;2023-03-15T11:11:48;98800.72;;;5.30;44.92
12676;BME280;63820;65.654;21.944;2023-03-15T11:14:42;98795.78;;;4.72;45.45
12676;BME280;63820;65.654;21.944;2023-03-15T11:17:30;98810.72;;;3.88;48.06
12676;BME280;63820;65.654;21.944;2023-03-15T11:20:36;98804.00;;;3.23;48.76
12676;BME280;63820;65.654;21.944;2023-03-15T11:23:27;98811.22;;;3.36;48.76
12676;BME280;63820;65.654;21.944;2023-03-15T11:26:21;98818.31;;;3.71;49.51
12676;BME280;63820;65.654;21.944;2023-03-15T11:29:14;98814.56;;;4.17;47.67
12676;BME280;63820;65.654;21.944;2023-03-15T11:32:31;98827.44;;;4.17;47.09
12676;BME280;63820;65.654;21.944;2023-03-15T11:35:35;98828.03;;;4.62;46.51
12676;BME280;63820;65.654;21.944;2023-03-15T11:38:27;98828.97;;;4.97;45.52
12676;BME280;63820;65.654;21.944;2023-03-15T11:47:04;98839.66;;;5.94;43.86
12676;BME280;63820;65.654;21.944;2023-03-15T11:49:54;98842.25;;;6.43;42.76
12676;BME280;63820;65.654;21.944;2023-03-15T11:52:39;98835.53;;;5.55;44.52
12676;BME280;63820;65.654;21.944;2023-03-15T11:55:26;98836.06;;;5.45;45.76
12676;BME280;63820;65.654;21.944;2023-03-15T11:58:35;98852.38;;;6.79;41.73
12676;BME280;63820;65.654;21.944;2023-03-15T12:01:25;98851.13;;;7.17;40.94
12676;BME280;63820;65.654;21.944;2023-03-15T12:12:48;98864.59;;;3.51;48.55
12676;BME280;63820;65.654;21.944;2023-03-15T12:15:42;98864.81;;;3.45;48.99
12676;BME280;63820;65.654;21.944;2023-03-15T12:18:41;98867.59;;;3.18;50.29
12676;BME280;63820;65.654;21.944;2023-03-15T12:21:33;98864.38;;;2.91;49.77
12676;BME280;63820;65.654;21.944;2023-03-15T12:27:16;98871.28;;;1.98;53.20
12676;BME280;63820;65.654;21.944;2023-03-15T12:30:02;98880.09;;;1.64;54.45
12676;BME280;63820;65.654;21.944;2023-03-15T12:32:49;98873.09;;;1.16;56.30
12676;BME280;63820;65.654;21.944;2023-03-15T12:35:39;98876.44;;;0.92;57.75
12676;BME280;63820;65.654;21.944;2023-03-15T12:38:23;98884.69;;;0.72;58.08
12676;BME280;63820;65.654;21.944;2023-03-15T12:41:32;98887.38;;;0.38;59.00
12676;BME280;63820;65.654;21.944;2023-03-15T12:44:17;98899.84;;;0.18;60.41
12676;BME280;63820;65.654;21.944;2023-03-15T12:47:04;98903.09;;;0.24;62.79
12676;BME280;63820;65.654;21.944;2023-03-15T12:49:48;98909.97;;;0.53;61.47
12676;BME280;63820;65.654;21.944;2023-03-15T12:52:39;98913.75;;;0.40;62.39
12676;BME280;63820;65.654;21.944;2023-03-15T12:55:27;98903.25;;;0.49;61.51
12676;BME280;63820;65.654;21.944;2023-03-15T12:58:16;98910.84;;;0.82;61.74
12676;BME280;63820;65.654;21.944;2023-03-15T13:01:04;98913.16;;;0.61;60.18
12676;BME280;63820;65.654;21.944;2023-03-15T13:03:53;98926.84;;;1.16;60.38
12676;BME280;63820;65.654;21.944;2023-03-15T13:12:44;98943.94;;;1.44;58.48
12676;BME280;63820;65.654;21.944;2023-03-15T13:15:48;98930.59;;;1.06;57.84
12676;BME280;63820;65.654;21.944;2023-03-15T13:25:18;98968.91;;;1.91;55.82
12676;BME280;63820;65.654;21.944;2023-03-15T13:28:33;98974.03;;;4.59;51.12
12676;BME280;63820;65.654;21.944;2023-03-15T13:31:25;98985.25;;;5.16;47.55
12676;BME280;63820;65.654;21.944;2023-03-15T13:34:21;98964.91;;;4.91;47.35
12676;BME280;63820;65.654;21.944;2023-03-15T13:37:16;98952.28;;;3.43;50.36
12676;BME280;63820;65.654;21.944;2023-03-15T13:40:06;98969.00;;;2.38;53.35
12676;BME280;63820;65.654;21.944;2023-03-15T13:42:59;98967.13;;;1.67;55.21
12676;BME280;63820;65.654;21.944;2023-03-15T13:45:44;98976.31;;;1.18;57.75
12676;BME280;63820;65.654;21.944;2023-03-15T13:48:31;98989.66;;;0.71;59.24
12676;BME280;63820;65.654;21.944;2023-03-15T13:51:27;98978.75;;;-0.01;58.63
12676;BME280;63820;65.654;21.944;2023-03-15T13:57:20;98991.66;;;-0.41;61.70
12676;BME280;63820;65.654;21.944;2023-03-15T14:00:14;98990.78;;;-0.40;63.49
12676;BME280;63820;65.654;21.944;2023-03-15T14:03:10;99000.47;;;-0.54;63.11
12676;BME280;63820;65.654;21.944;2023-03-15T14:05:57;98999.03;;;-0.66;64.55
12676;BME280;63820;65.654;21.944;2023-03-15T14:08:41;99004.91;;;-0.62;66.15
12676;BME280;63820;65.654;21.944;2023-03-15T14:11:34;99007.38;;;-0.59;70.83
12676;BME280;63820;65.654;21.944;2023-03-15T14:14:26;99007.09;;;-0.86;72.10
12676;BME280;63820;65.654;21.944;2023-03-15T14:17:25;99005.81;;;-1.05;74.24
12676;BME280;63820;65.654;21.944;2023-03-15T14:20:14;99012.00;;;-1.17;77.39
12676;BME280;63820;65.654;21.944;2023-03-15T14:23:00;99007.28;;;-1.35;79.59
12676;BME280;63820;65.654;21.944;2023-03-15T14:26:40;99021.91;;;-1.45;81.47
12676;BME280;63820;65.654;21.944;2023-03-15T14:29:14;99015.28;;;-1.55;82.87
12676;BME280;63820;65.654;21.944;2023-03-15T14:32:05;99025.47;;;-1.55;82.19
12676;BME280;63820;65.654;21.944;2023-03-15T14:35:01;99032.84;;;-1.40;82.00
12676;BME280;63820;65.654;21.944;2023-03-15T14:37:46;99032.63;;;-1.27;82.08
12676;BME280;63820;65.654;21.944;2023-03-15T14:40:33;99034.25;;;-1.23;80.67
12676;BME280;63820;65.654;21.944;2023-03-15T14:43:18;99038.38;;;-1.16;82.40
12676;BME280;63820;65.654;21.944;2023-03-15T14:46:04;99042.59;;;-1.15;86.03
12676;BME280;63820;65.654;21.944;2023-03-15T14:48:49;99048.84;;;-1.32;86.35
12676;BME280;63820;65.654;21.944;2023-03-15T14:51:34;99055.03;;;-1.43;87.83
12676;BME280;63820;65.654;21.944;2023-03-15T14:54:17;99046.59;;;-1.47;90.01
12676;BME280;63820;65.654;21.944;2023-03-15T14:57:02;99060.34;;;-1.55;93.37
12676;BME280;63820;65.654;21.944;2023-03-15T14:59:48;99066.53;;;-1.70;90.11
12676;BME280;63820;65.654;21.944;2023-03-15T15:02:32;99072.41;;;-1.65;92.68
12676;BME280;63820;65.654;21.944;2023-03-15T15:05:22;99072.31;;;-1.60;94.65
12676;BME280;63820;65.654;21.944;2023-03-15T15:08:13;99077.38;;;-1.59;95.17
12676;BME280;63820;65.654;21.944;2023-03-15T15:10:59;99079.13;;;-1.61;94.82
12676;BME280;63820;65.654;21.944;2023-03-15T15:13:43;99085.97;;;-1.63;98.44
12676;BME280;63820;65.654;21.944;2023-03-15T15:16:27;99087.72;;;-1.67;100.00